Time;durP1;ratioP1;P1;durP2;ratioP2;P2;SDS_P1;SDS_P2;PMS_P1;PMS_P2;Temp;Humidity;BMP_temperature;BMP_pressure;BME280_temperature;BME280_humidity;BME280_pressure;Samples;Min_cycle;Max_cycle;Signal;HPM_P1;HPM_P2
2021/07/10 00:01:31;;;;;;;4.72;1.85;;;;;;;15.17;100.00;100081.59;5052690;28;20044;-49
2021/07/10 00:04:34;;;;;;;5.55;1.98;;;;;;;15.16;100.00;100079.25;5052816;28;20044;-50
2021/07/10 00:07:37;;;;;;;3.45;1.98;;;;;;;15.15;100.00;100072.91;5052784;28;20508;-50
2021/07/10 00:10:41;;;;;;;5.43;1.98;;;;;;;15.14;100.00;100074.16;5052973;28;20067;-50
2021/07/10 00:13:44;;;;;;;2.88;1.45;;;;;;;15.09;100.00;100077.69;5032971;28;20410;-50
2021/07/10 00:16:48;;;;;;;7.25;1.67;;;;;;;15.03;100.00;100076.91;5033454;28;20048;-50
2021/07/10 00:19:52;;;;;;;5.50;2.03;;;;;;;14.89;100.00;100080.66;5033009;28;20049;-50
2021/07/10 00:22:56;;;;;;;4.15;1.65;;;;;;;14.82;100.00;100069.88;5033336;28;20067;-50
2021/07/10 00:25:59;;;;;;;4.55;1.20;;;;;;;14.81;100.00;100062.72;5033057;28;20057;-50
2021/07/10 00:29:03;;;;;;;2.85;1.48;;;;;;;14.74;100.00;100060.41;5032880;28;20580;-50
2021/07/10 00:32:06;;;;;;;6.07;2.03;;;;;;;14.71;100.00;100063.44;5032482;28;20056;-50
2021/07/10 00:35:10;;;;;;;8.70;2.60;;;;;;;14.46;100.00;100064.25;5032857;28;20052;-50
2021/07/10 00:38:13;;;;;;;13.13;2.78;;;;;;;14.35;100.00;100062.13;5033029;28;20040;-50
2021/07/10 00:41:17;;;;;;;3.50;1.58;;;;;;;14.31;100.00;100056.00;5032606;28;20494;-50
2021/07/10 00:44:21;;;;;;;5.55;1.50;;;;;;;14.23;100.00;100049.25;5031578;28;20052;-51
2021/07/10 00:47:24;;;;;;;5.25;2.17;;;;;;;14.24;100.00;100036.78;5032349;28;20517;-50
2021/07/10 00:50:28;;;;;;;6.00;2.08;;;;;;;14.16;100.00;100032.91;5032464;28;20049;-51
2021/07/10 00:53:31;;;;;;;3.80;2.58;;;;;;;14.19;100.00;100029.09;5032373;28;20101;-50
2021/07/10 00:56:34;;;;;;;4.97;1.98;;;;;;;14.13;100.00;100026.25;5032201;28;20049;-51
2021/07/10 00:59:40;;;;;;;7.72;2.65;;;;;;;14.03;100.00;100024.13;5032384;28;20681;-50
2021/07/10 01:02:45;;;;;;;4.78;1.55;;;;;;;14.02;100.00;100033.78;5031884;28;20068;-50
2021/07/10 01:05:48;;;;;;;10.50;1.95;;;;;;;14.08;100.00;100037.41;5032386;28;20052;-50
2021/07/10 01:08:53;;;;;;;5.00;2.75;;;;;;;14.07;100.00;100039.44;5032343;28;20041;-50
2021/07/10 01:11:57;;;;;;;5.45;2.33;;;;;;;14.05;100.00;100041.22;5037671;28;20044;-50
2021/07/10 01:15:02;;;;;;;4.63;1.83;;;;;;;14.01;100.00;100032.25;5052029;28;20075;-50
2021/07/10 01:18:05;;;;;;;6.95;2.30;;;;;;;13.83;100.00;100021.38;5051419;28;20056;-50
2021/07/10 01:21:09;;;;;;;1.98;1.02;;;;;;;13.84;100.00;100018.09;5051589;28;20056;-50
2021/07/10 01:24:12;;;;;;;4.18;1.65;;;;;;;13.80;100.00;100022.34;5051993;28;20044;-50
2021/07/10 01:27:15;;;;;;;7.90;2.75;;;;;;;13.80;100.00;100011.16;5051404;28;20068;-50
2021/07/10 01:30:21;;;;;;;8.10;2.10;;;;;;;13.80;100.00;100006.34;5051678;28;20104;-50
2021/07/10 01:33:24;;;;;;;8.57;1.40;;;;;;;13.74;100.00;100001.94;5051258;28;20086;-51
2021/07/10 01:36:29;;;;;;;5.53;1.67;;;;;;;13.66;100.00;99996.78;5051457;28;20048;-50
2021/07/10 01:39:37;;;;;;;3.22;1.77;;;;;;;13.47;100.00;99989.97;5051183;28;20051;-50
2021/07/10 01:42:42;;;;;;;5.68;1.83;;;;;;;13.46;100.00;99984.88;5051653;28;20065;-50
2021/07/10 01:45:46;;;;;;;6.85;1.42;;;;;;;13.51;100.00;99984.91;5050914;28;20048;-51
2021/07/10 01:48:49;;;;;;;5.32;1.95;;;;;;;13.39;100.00;99980.47;5050781;28;20048;-50
2021/07/10 01:51:53;;;;;;;5.38;1.65;;;;;;;13.28;100.00;99980.34;5051079;28;20397;-50
2021/07/10 01:54:56;;;;;;;5.00;1.92;;;;;;;13.28;100.00;99971.94;5050591;28;20063;-50
2021/07/10 01:58:01;;;;;;;3.92;2.15;;;;;;;13.26;100.00;99980.06;5051247;28;20044;-51
2021/07/10 02:01:05;;;;;;;7.20;1.88;;;;;;;13.15;100.00;99968.75;5051047;28;20063;-50
2021/07/10 02:04:11;;;;;;;5.15;2.20;;;;;;;13.16;100.00;99961.91;5050879;28;20052;-50
2021/07/10 02:07:15;;;;;;;9.00;2.20;;;;;;;13.09;100.00;99953.94;5050754;28;20052;-50
2021/07/10 02:10:21;;;;;;;6.15;2.88;;;;;;;13.10;100.00;99960.31;5051067;28;20405;-50
2021/07/10 02:13:24;;;;;;;3.45;1.45;;;;;;;13.08;100.00;99949.59;5050646;28;20072;-50
2021/07/10 02:16:27;;;;;;;6.55;1.75;;;;;;;13.07;100.00;99941.69;5050471;28;20056;-51
2021/07/10 02:19:31;;;;;;;9.43;1.73;;;;;;;13.11;100.00;99933.88;5051423;28;20044;-51
2021/07/10 02:22:35;;;;;;;4.20;2.15;;;;;;;13.13;100.00;99937.72;5052061;28;20063;-50
2021/07/10 02:25:38;;;;;;;11.43;2.95;;;;;;;13.08;100.00;99935.63;5051770;28;20393;-51
2021/07/10 02:28:42;;;;;;;12.13;2.78;;;;;;;13.10;100.00;99930.31;5051263;28;20903;-50
2021/07/10 02:31:45;;;;;;;6.88;2.15;;;;;;;13.12;100.00;99936.19;5051944;28;20059;-50
2021/07/10 02:34:48;;;;;;;2.70;2.10;;;;;;;13.16;100.00;99930.38;5052370;28;20063;-50
2021/07/10 02:37:52;;;;;;;11.13;2.65;;;;;;;13.19;100.00;99935.00;5052505;28;20044;-51
2021/07/10 02:40:55;;;;;;;11.98;2.70;;;;;;;13.10;100.00;99924.72;5052543;28;20060;-51
2021/07/10 02:43:59;;;;;;;4.18;2.33;;;;;;;13.18;100.00;99920.25;5052636;28;20280;-50
2021/07/10 02:47:03;;;;;;;8.20;2.30;;;;;;;13.27;100.00;99914.50;5052386;28;20048;-51
2021/07/10 02:50:10;;;;;;;6.68;2.95;;;;;;;13.18;100.00;99909.06;5052187;28;20048;-50
2021/07/10 02:53:14;;;;;;;5.57;2.10;;;;;;;13.10;100.00;99921.16;5052053;28;20056;-50
2021/07/10 02:56:17;;;;;;;5.10;2.40;;;;;;;13.07;100.00;99922.91;5052067;28;20052;-50
2021/07/10 02:59:20;;;;;;;5.65;1.58;;;;;;;13.14;100.00;99922.47;5052454;28;20060;-50
2021/07/10 03:02:24;;;;;;;7.75;2.50;;;;;;;13.16;100.00;99914.38;5051864;28;20052;-50
2021/07/10 03:05:27;;;;;;;13.40;3.08;;;;;;;13.22;100.00;99923.59;5052186;28;20064;-51
2021/07/10 03:08:31;;;;;;;8.98;2.97;;;;;;;13.27;100.00;99920.09;5055816;28;20047;-51
2021/07/10 03:11:35;;;;;;;6.28;2.42;;;;;;;13.32;100.00;99910.97;5056367;28;20048;-50
2021/07/10 03:14:38;;;;;;;6.13;1.55;;;;;;;13.35;100.00;99907.19;5055658;28;20284;-50
2021/07/10 03:17:46;;;;;;;4.85;1.85;;;;;;;13.45;100.00;99914.16;5055812;28;20044;-50
2021/07/10 03:20:50;;;;;;;4.95;2.13;;;;;;;13.41;100.00;99899.63;5055721;28;20051;-50
2021/07/10 03:23:53;;;;;;;5.28;1.67;;;;;;;13.33;100.00;99906.91;5056214;28;20047;-51
2021/07/10 03:26:57;;;;;;;8.40;1.52;;;;;;;13.34;100.00;99913.28;5055230;28;20052;-51
2021/07/10 03:30:01;;;;;;;2.40;1.63;;;;;;;13.31;100.00;99901.06;5055959;28;20064;-51
2021/07/10 03:33:05;;;;;;;4.93;1.55;;;;;;;13.45;100.00;99907.78;5055756;28;20060;-51
2021/07/10 03:36:09;;;;;;;12.02;2.70;;;;;;;13.50;100.00;99905.06;5055891;28;20088;-51
2021/07/10 03:39:12;;;;;;;7.30;2.22;;;;;;;13.50;100.00;99902.25;5055375;28;20040;-50
2021/07/10 03:42:16;;;;;;;8.07;1.92;;;;;;;13.54;100.00;99905.59;5055682;28;20056;-51
2021/07/10 03:45:20;;;;;;;7.55;2.40;;;;;;;13.58;100.00;99905.38;5055493;28;20048;-51
2021/07/10 03:48:24;;;;;;;6.47;2.13;;;;;;;13.68;100.00;99893.53;5055251;28;20047;-51
2021/07/10 03:51:27;;;;;;;3.80;2.03;;;;;;;13.69;100.00;99889.44;5055135;28;20507;-51
2021/07/10 03:54:31;;;;;;;4.80;1.98;;;;;;;13.66;100.00;99895.28;5055772;28;20052;-50
2021/07/10 03:57:35;;;;;;;6.43;3.08;;;;;;;13.60;100.00;99880.44;5054725;28;20059;-50
2021/07/10 04:00:38;;;;;;;7.32;2.15;;;;;;;13.69;100.00;99888.69;5055477;28;20056;-51
2021/07/10 04:03:41;;;;;;;8.30;2.65;;;;;;;13.80;100.00;99888.00;5055186;28;20052;-50
2021/07/10 04:06:44;;;;;;;3.20;1.73;;;;;;;13.71;100.00;99891.00;5055133;28;20052;-50
2021/07/10 04:09:48;;;;;;;4.40;1.25;;;;;;;13.62;100.00;99887.09;5054134;28;20048;-50
2021/07/10 04:12:52;;;;;;;4.05;1.95;;;;;;;13.66;100.00;99884.09;5053723;28;20052;-51
2021/07/10 04:15:57;;;;;;;2.45;1.88;;;;;;;13.68;100.00;99892.75;5054758;28;20044;-51
2021/07/10 04:19:00;;;;;;;10.32;2.53;;;;;;;13.76;100.00;99881.88;5053443;28;20056;-51
2021/07/10 04:22:04;;;;;;;6.88;2.20;;;;;;;13.76;100.00;99885.44;5054768;28;20060;-50
2021/07/10 04:25:13;;;;;;;4.47;2.00;;;;;;;13.75;100.00;99886.72;5054551;28;20048;-50
2021/07/10 04:28:17;;;;;;;6.22;2.60;;;;;;;13.86;100.00;99881.19;5054467;28;20048;-51
2021/07/10 04:31:20;;;;;;;7.88;1.95;;;;;;;13.82;100.00;99879.91;5054493;28;20492;-51
2021/07/10 04:34:24;;;;;;;6.85;2.53;;;;;;;13.94;100.00;99881.50;5054468;28;20047;-51
2021/07/10 04:37:27;;;;;;;7.40;2.88;;;;;;;14.02;100.00;99876.97;5054454;28;20039;-51
2021/07/10 04:40:31;;;;;;;7.90;2.33;;;;;;;13.94;100.00;99875.91;5054394;28;20044;-50
2021/07/10 04:43:35;;;;;;;4.60;2.67;;;;;;;14.05;100.00;99881.59;5054244;28;20048;-51
2021/07/10 04:46:39;;;;;;;8.52;2.38;;;;;;;14.21;100.00;99873.28;5054249;28;20650;-51
2021/07/10 04:49:43;;;;;;;10.98;2.45;;;;;;;14.23;100.00;99878.38;5053660;28;20048;-51
2021/07/10 04:52:46;;;;;;;8.40;2.88;;;;;;;14.23;100.00;99883.97;5053668;28;20068;-51
2021/07/10 04:55:49;;;;;;;3.03;1.40;;;;;;;14.24;100.00;99871.53;5053655;28;20043;-50
2021/07/10 04:58:53;;;;;;;4.97;2.30;;;;;;;14.33;100.00;99868.56;5054029;28;20497;-51
2021/07/10 05:01:56;;;;;;;4.65;2.03;;;;;;;14.44;100.00;99868.63;5053770;28;20060;-50
2021/07/10 05:05:00;;;;;;;5.97;2.72;;;;;;;14.60;100.00;99867.91;5054160;28;20051;-51
2021/07/10 05:08:04;;;;;;;6.13;2.22;;;;;;;14.69;100.00;99873.31;5053854;28;20052;-50
2021/07/10 05:11:08;;;;;;;6.63;2.75;;;;;;;14.73;100.00;99875.84;5053846;28;20496;-50
2021/07/10 05:14:11;;;;;;;13.13;3.40;;;;;;;14.79;100.00;99874.63;5053772;28;20060;-51
2021/07/10 05:17:17;;;;;;;6.65;2.13;;;;;;;14.91;100.00;99879.00;5053577;28;20413;-50
2021/07/10 05:20:20;;;;;;;9.57;3.08;;;;;;;14.98;100.00;99872.91;5053471;28;20140;-50
2021/07/10 05:23:24;;;;;;;8.40;2.95;;;;;;;15.03;100.00;99874.94;5054042;28;20052;-51
2021/07/10 05:26:27;;;;;;;9.40;2.95;;;;;;;15.09;100.00;99881.34;5053209;28;20056;-50
2021/07/10 05:29:31;;;;;;;8.82;3.97;;;;;;;15.28;100.00;99878.06;5053342;28;20056;-51
2021/07/10 05:32:34;;;;;;;8.45;2.50;;;;;;;15.28;100.00;99875.28;5053208;28;20055;-50
2021/07/10 05:35:38;;;;;;;9.77;3.03;;;;;;;15.32;100.00;99873.75;5053055;28;20044;-50
2021/07/10 05:38:42;;;;;;;9.13;3.15;;;;;;;15.38;100.00;99874.53;5063281;28;20040;-50
2021/07/10 05:41:45;;;;;;;4.57;2.25;;;;;;;15.38;100.00;99871.72;5053031;28;20060;-50
2021/07/10 05:44:49;;;;;;;9.32;3.05;;;;;;;15.50;100.00;99864.13;5053101;28;20052;-50
2021/07/10 05:47:52;;;;;;;13.07;3.35;;;;;;;15.54;100.00;99859.00;5053393;28;20048;-50
2021/07/10 05:50:55;;;;;;;6.20;2.72;;;;;;;15.64;100.00;99874.31;5053036;28;20401;-50
2021/07/10 05:53:59;;;;;;;10.25;4.22;;;;;;;15.69;100.00;99868.72;5053280;28;20492;-50
2021/07/10 05:57:02;;;;;;;13.15;3.35;;;;;;;15.73;100.00;99877.66;5052831;28;20044;-50
2021/07/10 06:00:08;;;;;;;15.05;4.97;;;;;;;15.75;100.00;99874.31;5053207;28;20044;-50
2021/07/10 06:03:11;;;;;;;12.20;3.78;;;;;;;15.77;100.00;99874.56;5053098;28;20048;-50
2021/07/10 06:06:15;;;;;;;10.05;3.53;;;;;;;15.83;100.00;99872.56;5052642;28;20044;-50
2021/07/10 06:09:18;;;;;;;14.27;4.80;;;;;;;15.98;100.00;99861.81;5052451;28;20052;-50
2021/07/10 06:12:21;;;;;;;14.55;3.72;;;;;;;16.07;100.00;99855.91;5052243;28;20051;-50
2021/07/10 06:15:25;;;;;;;11.27;3.55;;;;;;;16.08;100.00;99863.06;5052348;28;20048;-51
2021/07/10 06:18:28;;;;;;;10.20;4.72;;;;;;;16.20;100.00;99866.63;5052581;28;20047;-50
2021/07/10 06:21:32;;;;;;;16.90;4.43;;;;;;;16.42;100.00;99858.91;5052239;28;20059;-50
2021/07/10 06:24:36;;;;;;;17.45;5.07;;;;;;;16.67;100.00;99862.69;5052784;28;20370;-50
2021/07/10 06:27:39;;;;;;;8.50;4.80;;;;;;;16.78;100.00;99864.69;5052336;28;20064;-50
2021/07/10 06:30:42;;;;;;;15.32;3.83;;;;;;;16.82;100.00;99857.50;5052619;28;20055;-50
2021/07/10 06:33:46;;;;;;;11.20;4.68;;;;;;;16.87;100.00;99867.19;5052333;28;20072;-50
2021/07/10 06:36:50;;;;;;;14.93;4.78;;;;;;;16.87;100.00;99861.56;5052529;28;20502;-50
2021/07/10 06:39:53;;;;;;;12.80;5.43;;;;;;;16.78;100.00;99861.88;5052280;28;20063;-50
2021/07/10 06:42:56;;;;;;;12.85;3.72;;;;;;;16.71;100.00;99859.59;5052827;28;20520;-50
2021/07/10 06:46:02;;;;;;;14.90;5.22;;;;;;;16.76;100.00;99856.78;5052191;28;20123;-50
2021/07/10 06:49:05;;;;;;;13.50;4.53;;;;;;;16.91;100.00;99867.69;5051469;28;20044;-50
2021/07/10 06:52:08;;;;;;;11.32;4.13;;;;;;;16.79;100.00;99860.56;5052134;28;20059;-49
2021/07/10 06:55:14;;;;;;;11.07;3.85;;;;;;;16.78;100.00;99864.69;5052250;28;20048;-50
2021/07/10 06:58:18;;;;;;;13.05;3.90;;;;;;;16.85;100.00;99864.16;5052215;28;20068;-50
2021/07/10 07:01:22;;;;;;;11.88;5.18;;;;;;;16.85;100.00;99861.34;5052258;28;20044;-50
2021/07/10 07:04:25;;;;;;;21.15;5.55;;;;;;;17.04;100.00;99859.44;5052209;28;20052;-50
2021/07/10 07:07:29;;;;;;;16.77;5.20;;;;;;;16.85;100.00;99861.34;5052064;28;20107;-50
2021/07/10 07:10:33;;;;;;;12.15;4.35;;;;;;;16.83;100.00;99867.47;5052379;28;20040;-50
2021/07/10 07:13:36;;;;;;;18.00;6.38;;;;;;;16.88;100.00;99857.47;5052062;28;20052;-49
2021/07/10 07:16:41;;;;;;;9.63;3.45;;;;;;;16.96;100.00;99864.06;5050722;28;20474;-50
2021/07/10 07:19:45;;;;;;;13.07;4.85;;;;;;;16.92;100.00;99861.53;5051685;28;20060;-50
2021/07/10 07:22:49;;;;;;;11.68;4.10;;;;;;;17.06;100.00;99865.31;5051428;28;20056;-50
2021/07/10 07:25:53;;;;;;;20.98;6.28;;;;;;;17.16;100.00;99860.91;5051282;28;20127;-50
2021/07/10 07:28:56;;;;;;;9.18;4.05;;;;;;;17.25;100.00;99858.53;5051494;28;20048;-51
2021/07/10 07:32:00;;;;;;;11.45;3.78;;;;;;;17.43;100.00;99859.97;5051981;28;20048;-50
2021/07/10 07:35:10;;;;;;;10.45;4.05;;;;;;;17.66;100.00;99852.91;5050876;28;20048;-50
2021/07/10 07:38:13;;;;;;;13.13;4.57;;;;;;;17.82;100.00;99854.78;5049114;28;20044;-51
2021/07/10 07:41:18;;;;;;;11.45;4.15;;;;;;;18.03;100.00;99836.16;5052227;28;20048;-50
2021/07/10 07:44:22;;;;;;;8.38;2.90;;;;;;;18.24;100.00;99833.63;5051166;28;20068;-50
2021/07/10 07:47:26;;;;;;;14.10;4.68;;;;;;;18.28;100.00;99836.19;5051756;28;20378;-50
2021/07/10 07:50:29;;;;;;;22.08;4.80;;;;;;;18.25;100.00;99828.78;5051558;28;20048;-50
2021/07/10 07:53:33;;;;;;;13.02;4.75;;;;;;;18.32;100.00;99833.81;5053261;28;20055;-50
2021/07/10 07:56:36;;;;;;;15.32;4.43;;;;;;;18.24;100.00;99839.28;5055026;28;20044;-51
2021/07/10 07:59:39;;;;;;;9.95;4.35;;;;;;;18.16;100.00;99830.66;5055323;28;20040;-51
2021/07/10 08:02:43;;;;;;;15.98;3.67;;;;;;;18.19;100.00;99838.03;5054845;28;20067;-50
2021/07/10 08:05:46;;;;;;;11.93;5.07;;;;;;;18.13;100.00;99834.53;5054700;28;20497;-50
2021/07/10 08:08:50;;;;;;;13.18;4.70;;;;;;;18.50;100.00;99838.75;5054734;28;20044;-50
2021/07/10 08:11:53;;;;;;;12.07;4.30;;;;;;;18.69;100.00;99834.66;5054660;28;20044;-51
2021/07/10 08:14:56;;;;;;;7.97;2.90;;;;;;;18.94;100.00;99838.22;5054712;28;20056;-50
2021/07/10 08:18:01;;;;;;;9.82;3.83;;;;;;;19.12;100.00;99828.97;5054948;28;20056;-50
2021/07/10 08:21:07;;;;;;;7.22;2.90;;;;;;;19.38;100.00;99822.72;5054481;28;20409;-50
2021/07/10 08:24:11;;;;;;;8.15;3.08;;;;;;;19.36;100.00;99822.50;5055024;28;20064;-50
2021/07/10 08:27:15;;;;;;;12.73;4.35;;;;;;;19.24;100.00;99824.69;5054394;28;20051;-50
2021/07/10 08:30:20;;;;;;;10.90;3.42;;;;;;;19.35;100.00;99810.41;5055140;28;20385;-50
2021/07/10 08:33:23;;;;;;;7.85;3.17;;;;;;;19.63;100.00;99816.38;5065196;28;20060;-50
2021/07/10 08:36:27;;;;;;;4.55;1.75;;;;;;;19.76;100.00;99809.22;5054715;28;20048;-50
2021/07/10 08:39:30;;;;;;;10.90;2.78;;;;;;;19.63;100.00;99813.56;5054191;28;20044;-50
2021/07/10 08:42:34;;;;;;;6.20;2.10;;;;;;;19.94;100.00;99814.06;5054390;28;20052;-50
2021/07/10 08:45:37;;;;;;;10.70;2.75;;;;;;;20.10;100.00;99802.44;5053945;28;20386;-50
2021/07/10 08:48:42;;;;;;;4.93;2.10;;;;;;;20.27;100.00;99802.16;5053783;28;20402;-50
2021/07/10 08:51:47;;;;;;;5.20;1.80;;;;;;;20.38;100.00;99807.56;5053738;28;20051;-50
2021/07/10 08:54:51;;;;;;;5.10;1.27;;;;;;;20.44;100.00;99802.59;5053874;28;20052;-51
2021/07/10 08:57:54;;;;;;;6.13;2.03;;;;;;;20.57;100.00;99796.91;5053576;28;20051;-50
2021/07/10 09:00:58;;;;;;;2.15;0.68;;;;;;;20.64;100.00;99796.22;5053766;28;20044;-51
2021/07/10 09:04:02;;;;;;;3.05;1.25;;;;;;;20.82;100.00;99805.88;5053140;28;20052;-50
2021/07/10 09:07:05;;;;;;;2.28;0.45;;;;;;;20.85;100.00;99790.66;5053600;28;20048;-50
2021/07/10 09:10:08;;;;;;;2.60;0.80;;;;;;;20.91;100.00;99803.38;5053789;28;20051;-50
2021/07/10 09:13:13;;;;;;;2.83;1.08;;;;;;;20.70;100.00;99799.72;5054011;28;20043;-50
2021/07/10 09:16:22;;;;;;;2.65;0.73;;;;;;;20.22;100.00;99794.53;5053725;28;20516;-49
2021/07/10 09:19:27;;;;;;;4.68;0.82;;;;;;;20.35;100.00;99800.97;5053517;28;20044;-49
2021/07/10 09:22:31;;;;;;;5.78;0.93;;;;;;;20.60;100.00;99784.47;5053555;28;20396;-50
2021/07/10 09:25:34;;;;;;;6.70;0.80;;;;;;;20.86;100.00;99786.50;5053344;28;20056;-50
2021/07/10 09:28:38;;;;;;;1.83;0.40;;;;;;;20.54;100.00;99789.50;5053564;28;20060;-50
2021/07/10 09:32:03;;;;;;;2.70;0.80;;;;;;;20.99;100.00;99786.47;5053726;28;20048;-50
2021/07/10 09:35:09;;;;;;;2.50;0.60;;;;;;;21.13;100.00;99791.56;5052487;28;20052;-50
2021/07/10 09:38:22;;;;;;;1.60;0.20;;;;;;;21.07;100.00;99784.50;5053153;28;20055;-50
2021/07/10 09:41:30;;;;;;;1.45;0.40;;;;;;;21.10;100.00;99787.00;5052909;28;20052;-50
2021/07/10 09:45:04;;;;;;;1.80;0.40;;;;;;;21.28;100.00;99788.13;5052829;28;20095;-50
2021/07/10 09:48:11;;;;;;;5.00;1.15;;;;;;;21.30;100.00;99787.56;5053047;28;20052;-50
2021/07/10 09:51:26;;;;;;;4.63;0.45;;;;;;;21.40;100.00;99791.44;5052718;28;20417;-50
2021/07/10 09:54:51;;;;;;;2.28;0.60;;;;;;;21.59;100.00;99786.34;5052931;28;20040;-50
2021/07/10 09:57:59;;;;;;;4.18;1.05;;;;;;;21.88;100.00;99796.44;5052716;28;20048;-50
2021/07/10 10:01:27;;;;;;;2.03;0.40;;;;;;;21.55;100.00;99791.59;5052545;28;20048;-50
2021/07/10 10:04:33;;;;;;;1.65;0.43;;;;;;;21.56;100.00;99798.78;5052345;28;20048;-50
2021/07/10 10:07:51;;;;;;;3.50;1.10;;;;;;;21.45;100.00;99788.47;5052535;28;20051;-54
2021/07/10 10:10:55;;;;;;;2.78;0.30;;;;;;;21.30;100.00;99793.25;5052911;28;20063;-53
2021/07/10 10:14:08;;;;;;;2.88;0.68;;;;;;;20.87;100.00;99791.63;5032369;28;20485;-54
2021/07/10 10:17:13;;;;;;;1.17;0.28;;;;;;;20.48;100.00;99783.22;5032198;28;20053;-54
2021/07/10 10:20:17;;;;;;;0.70;0.30;;;;;;;20.38;100.00;99785.72;5032703;28;20060;-54
2021/07/10 10:23:22;;;;;;;3.13;0.85;;;;;;;20.56;100.00;99778.41;5033006;28;20064;-54
2021/07/10 10:26:25;;;;;;;1.85;0.68;;;;;;;20.77;100.00;99781.31;5042559;28;20390;-54
2021/07/10 10:29:29;;;;;;;2.22;0.52;;;;;;;21.08;100.00;99772.63;5032621;28;20048;-54
2021/07/10 10:32:33;;;;;;;2.90;0.60;;;;;;;21.02;100.00;99783.31;5032158;28;20056;-54
2021/07/10 10:35:37;;;;;;;4.03;0.52;;;;;;;21.18;100.00;99780.66;5032589;28;20048;-54
2021/07/10 10:38:41;;;;;;;2.53;0.45;;;;;;;21.33;100.00;99775.16;5032046;28;20072;-54
2021/07/10 10:41:51;;;;;;;2.78;0.30;;;;;;;21.57;100.00;99772.72;5032349;28;20056;-54
2021/07/10 10:44:59;;;;;;;3.40;0.20;;;;;;;21.74;100.00;99775.13;5031548;28;20047;-54
2021/07/10 10:48:04;;;;;;;3.30;0.35;;;;;;;21.21;100.00;99777.47;5032563;28;20378;-54
2021/07/10 10:51:34;;;;;;;2.28;0.52;;;;;;;21.18;100.00;99766.50;5031870;28;20052;-54
2021/07/10 10:54:45;;;;;;;3.53;0.73;;;;;;;21.45;100.00;99771.47;5031863;28;20049;-54
2021/07/10 10:57:52;;;;;;;4.22;0.57;;;;;;;21.56;100.00;99770.44;5031490;28;20274;-54
2021/07/10 11:01:02;;;;;;;2.03;0.65;;;;;;;21.48;100.00;99761.13;5032364;28;20387;-54
2021/07/10 11:04:07;;;;;;;1.80;0.30;;;;;;;21.32;100.00;99765.13;5032187;28;20052;-54
2021/07/10 11:07:36;;;;;;;1.33;0.47;;;;;;;21.20;100.00;99758.22;5032119;28;20053;-54
2021/07/10 11:10:40;;;;;;;1.70;0.28;;;;;;;21.48;100.00;99752.63;5032121;28;20078;-54
2021/07/10 11:14:10;;;;;;;1.17;0.20;;;;;;;21.93;100.00;99753.00;5051767;28;20409;-54
2021/07/10 11:17:14;;;;;;;0.85;0.35;;;;;;;22.11;100.00;99757.63;5052266;28;20044;-54
2021/07/10 11:20:43;;;;;;;0.57;0.25;;;;;;;22.02;100.00;99754.56;5051515;28;20036;-54
2021/07/10 11:23:46;;;;;;;1.58;0.35;;;;;;;21.93;100.00;99758.66;5051520;28;20044;-54
2021/07/10 11:26:56;;;;;;;0.70;0.28;;;;;;;22.08;100.00;99750.25;5051947;28;20056;-54
2021/07/10 11:30:19;;;;;;;0.70;0.40;;;;;;;22.14;100.00;99748.03;5055654;28;20048;-54
2021/07/10 11:33:59;;;;;;;1.52;0.28;;;;;;;22.34;100.00;99750.03;5055646;28;20493;-54
2021/07/10 11:37:30;;;;;;;1.50;0.32;;;;;;;22.32;100.00;99743.38;5055710;28;20107;-54
2021/07/10 11:40:39;;;;;;;2.28;0.50;;;;;;;22.43;100.00;99743.84;5055492;28;20049;-54
2021/07/10 11:43:42;;;;;;;1.52;0.13;;;;;;;22.78;100.00;99744.38;5055521;28;20052;-54
2021/07/10 11:46:55;;;;;;;0.95;0.65;;;;;;;22.98;100.00;99743.47;5055257;28;20075;-54
2021/07/10 11:50:03;;;;;;;2.28;0.47;;;;;;;22.81;100.00;99744.00;5055400;28;20060;-54
2021/07/10 11:53:13;;;;;;;2.22;0.13;;;;;;;22.60;100.00;99752.63;5055011;28;20512;-56
2021/07/10 11:56:17;;;;;;;0.40;0.10;;;;;;;22.38;100.00;99746.81;5055023;28;20044;-56
2021/07/10 11:59:22;;;;;;;0.52;0.10;;;;;;;22.18;100.00;99739.91;5054909;28;20048;-55
2021/07/10 12:02:29;;;;;;;0.60;0.45;;;;;;;21.95;100.00;99750.38;5055182;28;20047;-55
2021/07/10 12:05:36;;;;;;;0.40;0.20;;;;;;;21.76;100.00;99739.25;5055261;28;20493;-55
2021/07/10 12:08:39;;;;;;;0.25;0.10;;;;;;;21.53;100.00;99743.19;5055430;28;20051;-55
2021/07/10 12:11:42;;;;;;;0.22;0.13;;;;;;;21.90;100.00;99737.09;5055240;28;20044;-55
2021/07/10 12:14:54;;;;;;;0.55;0.10;;;;;;;22.05;100.00;99734.34;5055316;28;20052;-55
2021/07/10 12:18:00;;;;;;;0.45;0.20;;;;;;;22.16;100.00;99724.75;5055085;28;20044;-55
2021/07/10 12:21:13;;;;;;;1.17;0.20;;;;;;;22.08;100.00;99723.97;5054916;28;20496;-55
2021/07/10 12:24:20;;;;;;;1.60;0.40;;;;;;;21.96;100.00;99734.84;5055336;28;20047;-55
2021/07/10 12:27:23;;;;;;;2.10;0.40;;;;;;;21.81;100.00;99729.03;5054764;28;20500;-55
2021/07/10 12:30:48;;;;;;;2.17;0.10;;;;;;;21.74;100.00;99729.78;5054634;28;20048;-52
2021/07/10 12:33:59;;;;;;;0.40;0.20;;;;;;;22.24;100.00;99719.91;5054902;28;20040;-51
2021/07/10 12:37:04;;;;;;;1.23;0.10;;;;;;;22.29;100.00;99722.56;5051892;28;20516;-51
2021/07/10 12:40:10;;;;;;;0.20;0.10;;;;;;;22.00;100.00;99718.25;5053775;28;20107;-51
2021/07/10 12:43:23;;;;;;;1.38;0.20;;;;;;;22.16;100.00;99722.69;5054696;28;20048;-52
2021/07/10 12:46:27;;;;;;;1.27;0.38;;;;;;;22.15;100.00;99728.94;5054568;28;20060;-51
2021/07/10 12:49:34;;;;;;;1.60;0.22;;;;;;;21.60;100.00;99731.16;5053743;28;20048;-51
2021/07/10 12:52:49;;;;;;;0.90;0.20;;;;;;;21.05;100.00;99739.75;5054271;28;20051;-51
2021/07/10 12:56:12;;;;;;;0.30;0.10;;;;;;;21.23;100.00;99740.84;5054380;28;20051;-51
2021/07/10 12:59:22;;;;;;;1.40;0.50;;;;;;;21.18;100.00;99732.50;5054014;28;20040;-51
2021/07/10 13:02:28;;;;;;;0.30;0.10;;;;;;;21.55;100.00;99741.34;5053715;28;20052;-51
2021/07/10 13:05:43;;;;;;;0.35;0.10;;;;;;;22.15;100.00;99728.94;5053722;28;20076;-52
2021/07/10 13:08:55;;;;;;;0.32;0.15;;;;;;;22.44;100.00;99727.53;5054268;28;20044;-52
2021/07/10 13:12:03;;;;;;;0.63;0.10;;;;;;;22.40;100.00;99725.06;5054131;28;20060;-52
2021/07/10 13:15:08;;;;;;;0.13;0.03;;;;;;;22.28;100.00;99723.91;5033839;28;20060;-51
2021/07/10 13:18:32;;;;;;;0.52;0.20;;;;;;;22.02;100.00;99721.28;5034244;28;20056;-51
2021/07/10 13:21:36;;;;;;;0.68;0.20;;;;;;;22.59;100.00;99721.97;5051315;28;20060;-52
2021/07/10 13:24:40;;;;;;;0.30;0.03;;;;;;;22.75;100.00;99726.38;5053884;28;20511;-51
2021/07/10 13:27:43;;;;;;;0.00;0.00;;;;;;;22.87;100.00;99723.97;5053779;28;20059;-51
2021/07/10 13:30:47;;;;;;;0.88;0.10;;;;;;;22.53;100.00;99719.28;5053888;28;20052;-52
2021/07/10 13:33:55;;;;;;;0.52;0.10;;;;;;;22.92;100.00;99714.47;5053709;28;20052;-53
2021/07/10 13:37:07;;;;;;;0.30;0.10;;;;;;;23.26;100.00;99720.59;5053708;28;20040;-53
2021/07/10 13:40:19;;;;;;;0.77;0.22;;;;;;;23.53;100.00;99716.09;5052508;28;20044;-54
2021/07/10 13:43:24;;;;;;;1.45;0.25;;;;;;;23.58;100.00;99715.16;5053008;28;20055;-53
2021/07/10 13:46:34;;;;;;;1.65;0.40;;;;;;;23.65;100.00;99711.53;5053575;28;20048;-54
2021/07/10 13:49:38;;;;;;;0.57;0.30;;;;;;;23.54;100.00;99719.72;5053496;28;20108;-53
2021/07/10 13:52:42;;;;;;;1.17;0.10;;;;;;;23.49;100.00;99715.72;5051453;28;20043;-53
2021/07/10 13:55:47;;;;;;;0.55;0.30;;;;;;;23.67;100.00;99714.56;5033423;28;20108;-54
2021/07/10 13:59:01;;;;;;;0.60;0.10;;;;;;;23.55;100.00;99707.75;5033829;28;20056;-54
2021/07/10 14:02:05;;;;;;;2.42;0.22;;;;;;;23.51;100.00;99710.22;5039480;28;20056;-54
2021/07/10 14:05:29;;;;;;;2.03;0.38;;;;;;;23.51;100.00;99701.69;5051300;28;20101;-54
2021/07/10 14:08:33;;;;;;;0.20;0.00;;;;;;;23.57;100.00;99705.09;5036789;28;20048;-54
2021/07/10 14:11:37;;;;;;;0.32;0.10;;;;;;;23.59;100.00;99696.75;5034918;28;20049;-53
2021/07/10 14:14:40;;;;;;;1.35;0.52;;;;;;;23.65;100.00;99705.09;5052901;28;20051;-54
2021/07/10 14:17:45;;;;;;;2.30;0.82;;;;;;;23.79;100.00;99692.94;5052270;28;20060;-54
2021/07/10 14:20:50;;;;;;;0.38;0.05;;;;;;;23.80;100.00;99694.44;5051796;28;20044;-54